createdAt,value
2022-09-20T00:00:23.543Z,100197.16
2022-09-20T00:04:08.610Z,100201.77
2022-09-20T00:07:36.847Z,100208.19
2022-09-20T00:11:07.599Z,100209.35
2022-09-20T00:14:36.668Z,100210.58
2022-09-20T00:18:03.765Z,100209.31
2022-09-20T00:21:32.561Z,100209.15
2022-09-20T00:24:59.556Z,100205.48
2022-09-20T00:28:34.140Z,100203.45
2022-09-20T00:32:01.354Z,100201.02
2022-09-20T00:35:29.772Z,100207.00
2022-09-20T00:39:00.134Z,100205.73
2022-09-20T00:42:33.301Z,100209.64
2022-09-20T00:46:01.382Z,100210.21
2022-09-20T00:49:31.663Z,100208.63
2022-09-20T00:53:03.899Z,100205.30
2022-09-20T00:56:34.509Z,100210.45
2022-09-20T01:00:03.871Z,100209.35
2022-09-20T01:03:34.579Z,100203.39
2022-09-20T01:07:04.806Z,100204.98
2022-09-20T01:10:33.510Z,100199.75
2022-09-20T01:14:00.425Z,100204.04
2022-09-20T01:17:31.171Z,100204.32
2022-09-20T01:21:01.328Z,100205.86
2022-09-20T01:24:39.279Z,100207.58
2022-09-20T01:28:08.475Z,100209.55
2022-09-20T01:31:43.793Z,100211.15
2022-09-20T01:35:12.612Z,100214.34
2022-09-20T01:38:49.809Z,100212.05
2022-09-20T01:42:17.861Z,100210.81
2022-09-20T01:45:50.389Z,100214.15
2022-09-20T01:49:30.648Z,100212.81
2022-09-20T01:53:26.993Z,100208.90
2022-09-20T01:57:27.461Z,100205.46
2022-09-20T02:01:21.493Z,100201.33
2022-09-20T02:05:08.346Z,100205.27
2022-09-20T02:09:02.215Z,100208.15
2022-09-20T02:12:57.441Z,100212.11
2022-09-20T02:16:48.197Z,100212.59
2022-09-20T02:20:30.916Z,100222.19
2022-09-20T02:24:04.787Z,100224.98
2022-09-20T02:27:40.752Z,100227.14
2022-09-20T02:31:17.913Z,100231.38
2022-09-20T02:35:04.615Z,100237.20
2022-09-20T02:38:46.429Z,100241.55
2022-09-20T02:42:19.456Z,100239.65
2022-09-20T02:45:54.148Z,100244.30
2022-09-20T02:49:30.306Z,100251.69
2022-09-20T02:53:08.852Z,100255.73
2022-09-20T02:56:43.361Z,100252.54
2022-09-20T03:00:16.049Z,100256.57
2022-09-20T03:03:52.688Z,100252.60
2022-09-20T03:07:27.898Z,100252.85
2022-09-20T03:11:03.482Z,100252.05
2022-09-20T03:14:38.117Z,100257.83
2022-09-20T03:18:12.694Z,100258.83
2022-09-20T03:21:52.434Z,100259.98
2022-09-20T03:25:41.023Z,100257.29
2022-09-20T03:29:20.370Z,100255.95
2022-09-20T03:33:03.699Z,100258.08
2022-09-20T03:37:04.702Z,100256.63
2022-09-20T03:41:00.516Z,100259.62
2022-09-20T03:44:59.215Z,100260.04
2022-09-20T03:48:44.334Z,100261.07
2022-09-20T03:52:23.194Z,100259.95
2022-09-20T03:56:07.135Z,100260.55
2022-09-20T03:59:54.442Z,100263.33
2022-09-20T04:03:35.279Z,100270.21
2022-09-20T04:07:14.866Z,100270.28
2022-09-20T04:10:55.405Z,100277.83
2022-09-20T04:14:31.502Z,100278.96
2022-09-20T04:18:04.389Z,100287.45
2022-09-20T04:21:38.415Z,100289.58
2022-09-20T04:25:14.990Z,100290.30
2022-09-20T04:28:46.626Z,100291.98
2022-09-20T04:32:21.036Z,100290.98
2022-09-20T04:36:14.756Z,100294.70
2022-09-20T04:39:49.139Z,100299.19
2022-09-20T04:43:53.846Z,100299.57
2022-09-20T04:47:56.152Z,100307.01
2022-09-20T04:51:55.451Z,100314.15
2022-09-20T04:55:53.132Z,100316.23
2022-09-20T04:59:36.331Z,100322.45
2022-09-20T05:03:26.153Z,100323.66
2022-09-20T05:07:18.560Z,100324.75
2022-09-20T05:11:17.458Z,100332.80
2022-09-20T05:15:10.192Z,100332.95
2022-09-20T05:19:15.035Z,100337.50
2022-09-20T05:23:13.611Z,100344.11
2022-09-20T05:26:55.606Z,100349.73
2022-09-20T05:30:34.945Z,100353.38
2022-09-20T05:34:09.469Z,100361.94
2022-09-20T05:37:51.722Z,100364.78
2022-09-20T05:41:32.216Z,100365.54
2022-09-20T05:45:14.120Z,100374.13
2022-09-20T05:48:56.989Z,100367.16
2022-09-20T05:52:53.138Z,100370.70
2022-09-20T05:56:35.213Z,100373.11
2022-09-20T06:00:07.976Z,100372.60
2022-09-20T06:03:54.598Z,100377.55
2022-09-20T06:07:33.205Z,100377.34
2022-09-20T06:11:13.598Z,100378.25
2022-09-20T06:14:55.786Z,100381.66
2022-09-20T06:18:28.901Z,100385.40
2022-09-20T06:22:03.959Z,100386.58
2022-09-20T06:25:39.949Z,100388.54
2022-09-20T06:29:12.977Z,100389.59
2022-09-20T06:32:56.590Z,100385.57
2022-09-20T06:36:47.306Z,100389.64
2022-09-20T06:40:43.678Z,100397.80
2022-09-20T06:44:11.306Z,100401.24
2022-09-20T06:47:38.973Z,100401.64
2022-09-20T06:51:06.900Z,100403.23
2022-09-20T06:54:33.949Z,100407.34
2022-09-20T06:58:01.709Z,100409.87
2022-09-20T07:01:30.434Z,100417.17
2022-09-20T07:04:59.525Z,100418.56
2022-09-20T07:08:26.620Z,100420.73
2022-09-20T07:11:53.510Z,100421.57
2022-09-20T07:15:23.139Z,100431.39
2022-09-20T07:18:52.553Z,100434.39
2022-09-20T07:22:20.629Z,100438.27
2022-09-20T07:25:47.444Z,100439.54
2022-09-20T07:29:14.537Z,100443.73
2022-09-20T07:32:42.245Z,100443.77
2022-09-20T07:36:12.129Z,100445.63
2022-09-20T07:39:39.691Z,100451.98
2022-09-20T07:43:06.996Z,100454.60
2022-09-20T07:46:36.541Z,100458.29
2022-09-20T07:50:07.605Z,100462.74
2022-09-20T07:53:35.849Z,100469.30
2022-09-20T07:57:03.258Z,100469.26
2022-09-20T08:00:30.156Z,100467.86
2022-09-20T08:03:57.424Z,100470.14
2022-09-20T08:07:25.021Z,100468.41
2022-09-20T08:10:52.295Z,100469.20
2022-09-20T08:14:21.272Z,100464.95
2022-09-20T08:17:51.168Z,100461.11
2022-09-20T08:21:17.918Z,100464.68
2022-09-20T08:24:45.530Z,100468.52
2022-09-20T08:28:12.238Z,100465.80
2022-09-20T08:31:42.951Z,100469.80
2022-09-20T08:35:12.324Z,100478.09
2022-09-20T08:42:36.637Z,100479.11
2022-09-20T08:46:14.061Z,100484.90
2022-09-20T08:49:46.034Z,100487.53
2022-09-20T08:53:21.305Z,100488.49
2022-09-20T08:56:50.117Z,100486.55
2022-09-20T09:00:22.232Z,100486.61
2022-09-20T09:03:52.092Z,100492.19
2022-09-20T09:07:24.180Z,100490.05
2022-09-20T09:10:54.522Z,100489.38
2022-09-20T09:14:46.039Z,100487.55
2022-09-20T09:18:14.810Z,100490.03
2022-09-20T09:21:46.628Z,100492.64
2022-09-20T09:25:32.489Z,100496.57
2022-09-20T09:29:19.932Z,100500.35
2022-09-20T09:32:47.115Z,100505.20
2022-09-20T09:36:18.015Z,100508.13
2022-09-20T09:39:44.884Z,100512.29
2022-09-20T09:43:27.351Z,100509.80
2022-09-20T09:46:55.810Z,100507.14
2022-09-20T09:50:28.253Z,100505.61
2022-09-20T09:53:58.141Z,100509.42
2022-09-20T09:57:43.624Z,100509.50
2022-09-20T10:01:23.252Z,100508.87
2022-09-20T10:04:59.862Z,100510.77
2022-09-20T10:08:40.830Z,100510.41
2022-09-20T10:12:22.126Z,100508.52
2022-09-20T10:15:57.804Z,100508.16
2022-09-20T10:19:38.941Z,100504.63
2022-09-20T10:24:01.272Z,100508.64
2022-09-20T10:27:20.697Z,100506.73
2022-09-20T10:30:58.443Z,100512.21
2022-09-20T10:35:04.735Z,100510.34
2022-09-20T10:38:38.305Z,100510.58
2022-09-20T10:42:42.118Z,100513.94
2022-09-20T10:46:33.038Z,100515.43
2022-09-20T10:50:17.200Z,100518.77
2022-09-20T10:53:47.866Z,100518.98
2022-09-20T10:57:37.297Z,100519.59
2022-09-20T11:01:18.023Z,100519.02
2022-09-20T11:05:03.761Z,100516.85
2022-09-20T11:08:37.156Z,100519.04
2022-09-20T11:12:18.453Z,100524.25
2022-09-20T11:15:52.932Z,100517.89
2022-09-20T11:19:28.263Z,100523.42
2022-09-20T11:23:03.518Z,100519.06
2022-09-20T11:26:39.641Z,100517.20
2022-09-20T11:30:16.531Z,100514.14
2022-09-20T11:33:52.717Z,100517.89
2022-09-20T11:37:24.493Z,100519.39
2022-09-20T11:40:59.814Z,100521.06
2022-09-20T11:44:28.585Z,100528.70
2022-09-20T11:48:00.908Z,100531.41
2022-09-20T11:52:01.464Z,100532.88
2022-09-20T11:55:34.818Z,100533.95
2022-09-20T11:59:01.151Z,100537.13
2022-09-20T12:02:35.918Z,100538.36
2022-09-20T12:06:12.359Z,100545.67
2022-09-20T12:09:48.006Z,100551.14
2022-09-20T12:13:25.874Z,100558.34
2022-09-20T12:16:53.068Z,100561.00
2022-09-20T12:20:54.773Z,100565.31
2022-09-20T12:24:27.109Z,100566.25
2022-09-20T12:28:01.610Z,100566.41
2022-09-20T12:31:51.356Z,100567.84
2022-09-20T12:36:03.234Z,100566.05
2022-09-20T12:39:31.882Z,100568.37
2022-09-20T12:42:59.605Z,100569.79
2022-09-20T12:46:31.942Z,100564.88
2022-09-20T12:50:18.302Z,100562.84
2022-09-20T12:53:45.555Z,100560.80
2022-09-20T12:57:28.748Z,100562.42
2022-09-20T13:01:40.151Z,100561.58
2022-09-20T13:05:39.426Z,100559.66
2022-09-20T13:09:10.267Z,100562.63
2022-09-20T13:12:42.865Z,100566.00
2022-09-20T13:16:20.488Z,100577.83
2022-09-20T13:19:50.169Z,100584.14
2022-09-20T13:23:25.088Z,100591.51
2022-09-20T13:26:54.860Z,100588.16
2022-09-20T13:30:24.239Z,100590.51
2022-09-20T13:33:52.088Z,100587.18
2022-09-20T13:37:21.935Z,100586.28
2022-09-20T13:40:50.075Z,100584.59
2022-09-20T13:44:20.798Z,100582.32
2022-09-20T13:47:52.784Z,100581.13
2022-09-20T13:51:25.658Z,100582.45
2022-09-20T13:54:52.619Z,100582.08
2022-09-20T13:58:25.705Z,100583.21
2022-09-20T14:01:55.923Z,100585.96
2022-09-20T14:05:26.885Z,100587.48
2022-09-20T14:08:54.739Z,100589.11
2022-09-20T14:12:23.494Z,100596.11
2022-09-20T14:15:51.473Z,100596.48
2022-09-20T14:19:21.642Z,100604.45
2022-09-20T14:22:49.097Z,100613.30
2022-09-20T14:26:30.908Z,100615.33
2022-09-20T14:29:58.692Z,100621.59
2022-09-20T14:33:26.005Z,100621.39
2022-09-20T14:37:05.400Z,100630.07
2022-09-20T14:40:34.706Z,100630.16
2022-09-20T14:44:04.203Z,100634.77
2022-09-20T14:47:40.229Z,100634.26
2022-09-20T14:51:23.651Z,100633.81
2022-09-20T14:55:02.363Z,100633.64
2022-09-20T14:58:29.791Z,100636.88
2022-09-20T15:02:05.849Z,100635.58
2022-09-20T15:05:34.101Z,100635.79
2022-09-20T15:09:02.625Z,100633.23
2022-09-20T15:12:29.809Z,100634.20
2022-09-20T15:15:57.317Z,100641.42
2022-09-20T15:19:24.200Z,100647.55
2022-09-20T15:22:51.163Z,100645.94
2022-09-20T15:26:18.360Z,100647.17
2022-09-20T15:29:45.127Z,100646.08
2022-09-20T15:33:14.631Z,100648.59
2022-09-20T15:36:42.128Z,100649.17
2022-09-20T15:40:13.549Z,100653.39
2022-09-20T15:43:43.477Z,100661.91
2022-09-20T15:47:15.410Z,100670.88
2022-09-20T15:50:44.388Z,100680.16
2022-09-20T15:54:18.454Z,100683.51
2022-09-20T15:57:45.078Z,100684.59
2022-09-20T16:01:13.202Z,100686.10
2022-09-20T16:04:39.933Z,100693.23
2022-09-20T16:08:06.885Z,100691.83
2022-09-20T16:11:33.586Z,100694.01
2022-09-20T16:15:01.728Z,100689.23
2022-09-20T16:18:46.250Z,100693.65
2022-09-20T16:22:13.449Z,100693.55
2022-09-20T16:25:40.689Z,100694.17
2022-09-20T16:29:11.764Z,100697.25
2022-09-20T16:32:39.735Z,100698.48
2022-09-20T16:36:09.752Z,100705.13
2022-09-20T16:39:41.069Z,100708.42
2022-09-20T16:43:09.399Z,100716.52
2022-09-20T16:46:37.755Z,100721.15
2022-09-20T16:50:04.119Z,100723.51
2022-09-20T16:53:33.278Z,100732.50
2022-09-20T16:56:59.962Z,100731.08
2022-09-20T17:00:26.914Z,100737.83
2022-09-20T17:03:53.843Z,100742.52
2022-09-20T17:07:26.926Z,100752.05
2022-09-20T17:10:52.375Z,100759.26
2022-09-20T17:14:22.098Z,100761.25
2022-09-20T17:17:50.233Z,100766.58
2022-09-20T17:21:18.372Z,100768.31
2022-09-20T17:24:46.940Z,100774.54
2022-09-20T17:28:13.907Z,100778.16
2022-09-20T17:31:42.241Z,100779.69
2022-09-20T17:35:10.150Z,100787.11
2022-09-20T17:38:39.464Z,100794.27
2022-09-20T17:42:06.387Z,100800.28
2022-09-20T17:45:34.399Z,100803.86
2022-09-20T17:49:04.788Z,100803.77
2022-09-20T17:52:31.690Z,100806.00
2022-09-20T17:55:59.878Z,100815.63
2022-09-20T17:59:29.768Z,100827.25
2022-09-20T18:02:58.125Z,100828.46
2022-09-20T18:06:29.776Z,100828.60
2022-09-20T18:09:56.889Z,100833.83
2022-09-20T18:13:27.486Z,100833.06
2022-09-20T18:17:01.905Z,100835.34
2022-09-20T18:20:31.795Z,100839.98
2022-09-20T18:23:59.405Z,100840.01
2022-09-20T18:27:28.326Z,100843.91
2022-09-20T18:31:04.438Z,100846.51
2022-09-20T18:34:34.529Z,100846.02
2022-09-20T18:38:02.976Z,100844.30
2022-09-20T18:41:37.631Z,100847.32
2022-09-20T18:45:12.044Z,100853.95
2022-09-20T18:48:43.114Z,100856.54
2022-09-20T18:52:14.681Z,100859.45
2022-09-20T18:56:07.365Z,100856.66
2022-09-20T18:59:38.961Z,100858.05
2022-09-20T19:03:17.853Z,100862.10
2022-09-20T19:06:51.258Z,100868.27
2022-09-20T19:10:28.160Z,100871.20
2022-09-20T19:14:06.484Z,100878.19
2022-09-20T19:17:50.774Z,100880.18
2022-09-20T19:21:34.345Z,100884.42
2022-09-20T19:25:26.733Z,100885.23
2022-09-20T19:29:00.580Z,100887.79
2022-09-20T19:32:35.117Z,100892.11
2022-09-20T19:36:07.901Z,100898.25
2022-09-20T19:39:51.637Z,100902.86
2022-09-20T19:43:48.106Z,100905.39
2022-09-20T19:47:30.823Z,100912.05
2022-09-20T19:51:02.253Z,100914.94
2022-09-20T19:54:32.034Z,100916.41
2022-09-20T19:58:01.837Z,100918.95
2022-09-20T20:01:31.453Z,100926.23
2022-09-20T20:05:03.873Z,100929.95
2022-09-20T20:08:39.676Z,100930.34
2022-09-20T20:12:15.125Z,100933.55
2022-09-20T20:15:53.521Z,100934.68
2022-09-20T20:19:41.738Z,100938.30
2022-09-20T20:23:38.564Z,100936.67
2022-09-20T20:27:06.222Z,100939.86
2022-09-20T20:30:33.458Z,100943.79
2022-09-20T20:34:00.791Z,100948.85
2022-09-20T20:37:28.647Z,100953.45
2022-09-20T20:41:04.905Z,100961.52
2022-09-20T20:44:35.209Z,100962.36
2022-09-20T20:48:03.581Z,100963.38
2022-09-20T20:51:33.284Z,100965.34
2022-09-20T20:55:00.507Z,100969.33
2022-09-20T20:58:33.775Z,100968.29
2022-09-20T21:02:07.807Z,100968.91
2022-09-20T21:05:48.971Z,100970.52
2022-09-20T21:09:25.879Z,100974.54
2022-09-20T21:12:56.082Z,100973.58
2022-09-20T21:16:28.347Z,100975.92
2022-09-20T21:20:02.762Z,100977.17
2022-09-20T21:23:29.820Z,100978.07
2022-09-20T21:26:57.307Z,100980.96
2022-09-20T21:30:24.249Z,100985.95
2022-09-20T21:33:52.453Z,100993.77
2022-09-20T21:37:19.763Z,100991.96
2022-09-20T21:40:46.772Z,100997.58
2022-09-20T21:44:15.243Z,100999.08
2022-09-20T21:47:43.812Z,101001.59
2022-09-20T21:51:12.545Z,101000.84
2022-09-20T21:54:42.463Z,101002.10
2022-09-20T21:58:29.402Z,100999.02
2022-09-20T22:02:07.625Z,100999.84
2022-09-20T22:05:53.701Z,101000.79
2022-09-20T22:09:44.231Z,101000.98
2022-09-20T22:13:32.358Z,101002.55
2022-09-20T22:17:22.099Z,100998.89
2022-09-20T22:21:10.224Z,101000.27
2022-09-20T22:24:49.327Z,100999.93
2022-09-20T22:28:36.529Z,101001.73
2022-09-20T22:32:17.742Z,101006.20
2022-09-20T22:36:10.045Z,101008.80
2022-09-20T22:40:04.636Z,101009.30
2022-09-20T22:43:59.097Z,101010.28
2022-09-20T22:47:54.933Z,101007.08
2022-09-20T22:51:49.514Z,101014.50
2022-09-20T22:55:33.013Z,101009.90
2022-09-20T22:59:27.544Z,101009.50
2022-09-20T23:03:17.245Z,101008.59
2022-09-20T23:07:13.856Z,101008.09
2022-09-20T23:11:13.711Z,101011.41
2022-09-20T23:15:06.787Z,101012.16
2022-09-20T23:18:55.889Z,101011.14
2022-09-20T23:22:50.087Z,101010.90
2022-09-20T23:26:41.005Z,101009.98
2022-09-20T23:30:32.534Z,101015.56
2022-09-20T23:34:21.572Z,101013.47
2022-09-20T23:38:07.370Z,101014.39
2022-09-20T23:42:02.430Z,101018.38
2022-09-20T23:46:00.250Z,101025.70
2022-09-20T23:49:50.370Z,101023.30
2022-09-20T23:53:42.319Z,101024.72
2022-09-20T23:57:30.075Z,101025.48
